sensor_id;sensor_type;location;lat;lon;timestamp;pressure;altitude;pressure_sealevel;temperature;humidity
24558;BME280;12726;49.148;8.582;2023-12-20T00:02:40;100497.53;;;4.82;100.00
24558;BME280;12726;49.148;8.582;2023-12-20T00:05:30;100488.50;;;4.83;100.00
24558;BME280;12726;49.148;8.582;2023-12-20T00:08:17;100484.06;;;4.76;100.00
24558;BME280;12726;49.148;8.582;2023-12-20T00:11:02;100495.88;;;4.81;100.00
24558;BME280;12726;49.148;8.582;2023-12-20T00:13:48;100511.03;;;4.81;100.00
24558;BME280;12726;49.148;8.582;2023-12-20T00:16:33;100501.66;;;4.85;100.00
24558;BME280;12726;49.148;8.582;2023-12-20T00:19:20;100498.00;;;4.86;100.00
24558;BME280;12726;49.148;8.582;2023-12-20T00:22:05;100492.38;;;4.81;100.00
24558;BME280;12726;49.148;8.582;2023-12-20T00:24:50;100481.66;;;4.89;100.00
24558;BME280;12726;49.148;8.582;2023-12-20T00:27:35;100479.81;;;4.89;100.00
24558;BME280;12726;49.148;8.582;2023-12-20T00:30:21;100488.47;;;4.91;100.00
24558;BME280;12726;49.148;8.582;2023-12-20T00:33:06;100484.78;;;4.92;100.00
24558;BME280;12726;49.148;8.582;2023-12-20T00:35:56;100494.16;;;4.88;100.00
24558;BME280;12726;49.148;8.582;2023-12-20T00:38:41;100480.47;;;4.91;100.00
24558;BME280;12726;49.148;8.582;2023-12-20T00:41:28;100489.81;;;4.95;100.00
24558;BME280;12726;49.148;8.582;2023-12-20T00:44:13;100484.97;;;4.91;100.00
24558;BME280;12726;49.148;8.582;2023-12-20T00:46:59;100480.31;;;4.85;100.00
24558;BME280;12726;49.148;8.582;2023-12-20T00:49:44;100479.31;;;4.86;100.00
24558;BME280;12726;49.148;8.582;2023-12-20T00:52:31;100475.78;;;4.93;100.00
24558;BME280;12726;49.148;8.582;2023-12-20T00:55:16;100483.13;;;4.91;100.00
24558;BME280;12726;49.148;8.582;2023-12-20T00:58:02;100480.28;;;4.93;100.00
24558;BME280;12726;49.148;8.582;2023-12-20T01:00:47;100493.84;;;4.83;100.00
24558;BME280;12726;49.148;8.582;2023-12-20T01:03:32;100483.31;;;4.90;100.00
24558;BME280;12726;49.148;8.582;2023-12-20T01:06:18;100489.16;;;4.85;100.00
24558;BME280;12726;49.148;8.582;2023-12-20T01:09:04;100486.34;;;4.87;100.00
24558;BME280;12726;49.148;8.582;2023-12-20T01:11:50;100482.66;;;4.88;100.00
24558;BME280;12726;49.148;8.582;2023-12-20T01:14:35;100486.81;;;4.90;100.00
24558;BME280;12726;49.148;8.582;2023-12-20T01:17:20;100492.13;;;4.90;100.00
24558;BME280;12726;49.148;8.582;2023-12-20T01:20:07;100480.13;;;4.94;100.00
24558;BME280;12726;49.148;8.582;2023-12-20T01:22:52;100475.13;;;4.91;100.00
24558;BME280;12726;49.148;8.582;2023-12-20T01:25:39;100479.81;;;4.89;100.00
24558;BME280;12726;49.148;8.582;2023-12-20T01:28:24;100464.47;;;4.91;100.00
24558;BME280;12726;49.148;8.582;2023-12-20T01:31:09;100470.00;;;4.90;100.00
24558;BME280;12726;49.148;8.582;2023-12-20T01:33:55;100465.28;;;4.92;100.00
24558;BME280;12726;49.148;8.582;2023-12-20T01:36:40;100459.13;;;4.91;100.00
24558;BME280;12726;49.148;8.582;2023-12-20T01:39:26;100463.28;;;4.94;100.00
24558;BME280;12726;49.148;8.582;2023-12-20T01:42:13;100467.78;;;4.93;100.00
24558;BME280;12726;49.148;8.582;2023-12-20T01:44:58;100464.59;;;4.98;100.00
24558;BME280;12726;49.148;8.582;2023-12-20T01:47:43;100471.59;;;4.99;100.00
24558;BME280;12726;49.148;8.582;2023-12-20T01:50:29;100472.28;;;4.93;100.00
24558;BME280;12726;49.148;8.582;2023-12-20T01:53:15;100469.09;;;4.97;100.00
24558;BME280;12726;49.148;8.582;2023-12-20T01:56:01;100464.41;;;4.99;100.00
24558;BME280;12726;49.148;8.582;2023-12-20T01:58:51;100463.72;;;5.05;100.00
24558;BME280;12726;49.148;8.582;2023-12-20T02:01:36;100466.75;;;5.02;100.00
24558;BME280;12726;49.148;8.582;2023-12-20T02:04:22;100467.91;;;5.00;100.00
24558;BME280;12726;49.148;8.582;2023-12-20T02:07:08;100469.75;;;4.99;100.00
24558;BME280;12726;49.148;8.582;2023-12-20T02:09:53;100473.44;;;4.98;100.00
24558;BME280;12726;49.148;8.582;2023-12-20T02:12:40;100464.09;;;5.02;100.00
24558;BME280;12726;49.148;8.582;2023-12-20T02:15:27;100471.25;;;5.02;100.00
24558;BME280;12726;49.148;8.582;2023-12-20T02:18:12;100471.38;;;5.08;100.00
24558;BME280;12726;49.148;8.582;2023-12-20T02:20:58;100473.09;;;5.01;100.00
24558;BME280;12726;49.148;8.582;2023-12-20T02:23:45;100468.59;;;5.02;100.00
24558;BME280;12726;49.148;8.582;2023-12-20T02:26:31;100459.09;;;4.99;100.00
24558;BME280;12726;49.148;8.582;2023-12-20T02:29:17;100467.09;;;4.99;100.00
24558;BME280;12726;49.148;8.582;2023-12-20T02:32:03;100462.53;;;5.08;100.00
24558;BME280;12726;49.148;8.582;2023-12-20T02:34:48;100468.06;;;5.06;100.00
24558;BME280;12726;49.148;8.582;2023-12-20T02:37:33;100470.38;;;5.09;100.00
24558;BME280;12726;49.148;8.582;2023-12-20T02:40:20;100472.38;;;5.07;100.00
24558;BME280;12726;49.148;8.582;2023-12-20T02:43:06;100472.88;;;5.11;100.00
24558;BME280;12726;49.148;8.582;2023-12-20T02:45:51;100472.06;;;5.10;100.00
24558;BME280;12726;49.148;8.582;2023-12-20T02:48:36;100476.06;;;5.06;100.00
24558;BME280;12726;49.148;8.582;2023-12-20T02:51:21;100478.72;;;5.06;100.00
24558;BME280;12726;49.148;8.582;2023-12-20T02:54:06;100486.06;;;5.04;100.00
24558;BME280;12726;49.148;8.582;2023-12-20T02:56:53;100491.59;;;5.03;100.00
24558;BME280;12726;49.148;8.582;2023-12-20T02:59:39;100484.22;;;5.05;100.00
24558;BME280;12726;49.148;8.582;2023-12-20T03:02:24;100490.91;;;5.09;100.00
24558;BME280;12726;49.148;8.582;2023-12-20T03:05:09;100486.41;;;5.09;100.00
24558;BME280;12726;49.148;8.582;2023-12-20T03:07:55;100483.72;;;5.09;100.00
24558;BME280;12726;49.148;8.582;2023-12-20T03:10:40;100470.72;;;5.06;100.00
24558;BME280;12726;49.148;8.582;2023-12-20T03:13:27;100465.69;;;5.11;100.00
24558;BME280;12726;49.148;8.582;2023-12-20T03:16:13;100478.56;;;5.08;100.00
24558;BME280;12726;49.148;8.582;2023-12-20T03:19:00;100473.06;;;5.09;100.00
24558;BME280;12726;49.148;8.582;2023-12-20T03:21:45;100476.72;;;5.08;100.00
24558;BME280;12726;49.148;8.582;2023-12-20T03:24:30;100471.56;;;5.07;100.00
24558;BME280;12726;49.148;8.582;2023-12-20T03:27:15;100482.53;;;5.12;100.00
24558;BME280;12726;49.148;8.582;2023-12-20T03:30:02;100467.53;;;5.11;100.00
24558;BME280;12726;49.148;8.582;2023-12-20T03:32:48;100489.06;;;5.09;100.00
24558;BME280;12726;49.148;8.582;2023-12-20T03:35:33;100490.06;;;5.08;100.00
24558;BME280;12726;49.148;8.582;2023-12-20T03:38:18;100486.84;;;5.13;100.00
24558;BME280;12726;49.148;8.582;2023-12-20T03:41:04;100482.19;;;5.15;100.00
24558;BME280;12726;49.148;8.582;2023-12-20T03:43:49;100483.34;;;5.12;100.00
24558;BME280;12726;49.148;8.582;2023-12-20T03:46:35;100467.66;;;5.18;100.00
24558;BME280;12726;49.148;8.582;2023-12-20T03:49:21;100473.34;;;5.15;100.00
24558;BME280;12726;49.148;8.582;2023-12-20T03:52:06;100468.00;;;5.15;100.00
24558;BME280;12726;49.148;8.582;2023-12-20T03:54:51;100471.50;;;5.15;100.00
24558;BME280;12726;49.148;8.582;2023-12-20T03:57:37;100472.69;;;5.12;100.00
24558;BME280;12726;49.148;8.582;2023-12-20T04:00:22;100492.56;;;5.10;100.00
24558;BME280;12726;49.148;8.582;2023-12-20T04:03:09;100490.06;;;5.08;100.00
24558;BME280;12726;49.148;8.582;2023-12-20T04:05:56;100499.41;;;5.04;100.00
24558;BME280;12726;49.148;8.582;2023-12-20T04:08:42;100493.88;;;5.14;100.00
24558;BME280;12726;49.148;8.582;2023-12-20T04:11:27;100493.69;;;5.16;100.00
24558;BME280;12726;49.148;8.582;2023-12-20T04:14:12;100495.53;;;5.15;100.00
24558;BME280;12726;49.148;8.582;2023-12-20T04:16:58;100487.81;;;5.20;100.00
24558;BME280;12726;49.148;8.582;2023-12-20T04:19:44;100494.34;;;5.18;100.00
24558;BME280;12726;49.148;8.582;2023-12-20T04:22:30;100492.31;;;5.20;100.00
24558;BME280;12726;49.148;8.582;2023-12-20T04:25:15;100497.31;;;5.23;100.00
24558;BME280;12726;49.148;8.582;2023-12-20T04:28:00;100495.66;;;5.22;100.00
24558;BME280;12726;49.148;8.582;2023-12-20T04:30:45;100503.00;;;5.20;100.00
24558;BME280;12726;49.148;8.582;2023-12-20T04:33:31;100508.16;;;5.21;100.00
24558;BME280;12726;49.148;8.582;2023-12-20T04:36:18;100502.50;;;5.24;100.00
24558;BME280;12726;49.148;8.582;2023-12-20T04:39:03;100512.50;;;5.22;100.00
24558;BME280;12726;49.148;8.582;2023-12-20T04:41:48;100513.00;;;5.26;100.00
24558;BME280;12726;49.148;8.582;2023-12-20T04:44:34;100512.66;;;5.21;100.00
24558;BME280;12726;49.148;8.582;2023-12-20T04:47:19;100530.72;;;5.19;100.00
24558;BME280;12726;49.148;8.582;2023-12-20T04:50:06;100524.72;;;5.17;100.00
24558;BME280;12726;49.148;8.582;2023-12-20T04:52:53;100536.22;;;5.17;100.00
24558;BME280;12726;49.148;8.582;2023-12-20T04:55:38;100537.88;;;5.18;100.00
24558;BME280;12726;49.148;8.582;2023-12-20T04:58:23;100530.19;;;5.23;100.00
24558;BME280;12726;49.148;8.582;2023-12-20T05:01:09;100532.03;;;5.23;100.00
24558;BME280;12726;49.148;8.582;2023-12-20T05:03:54;100538.03;;;5.25;100.00
24558;BME280;12726;49.148;8.582;2023-12-20T05:06:40;100538.84;;;5.25;100.00
24558;BME280;12726;49.148;8.582;2023-12-20T05:09:26;100541.03;;;5.22;100.00
24558;BME280;12726;49.148;8.582;2023-12-20T05:12:12;100534.53;;;5.24;100.00
24558;BME280;12726;49.148;8.582;2023-12-20T05:14:58;100542.53;;;5.24;100.00
24558;BME280;12726;49.148;8.582;2023-12-20T05:17:44;100543.56;;;5.15;100.00
24558;BME280;12726;49.148;8.582;2023-12-20T05:20:29;100543.41;;;5.17;100.00
24558;BME280;12726;49.148;8.582;2023-12-20T05:23:14;100561.91;;;5.18;100.00
24558;BME280;12726;49.148;8.582;2023-12-20T05:26:02;100568.41;;;5.16;100.00
24558;BME280;12726;49.148;8.582;2023-12-20T05:28:47;100567.28;;;5.10;100.00
24558;BME280;12726;49.148;8.582;2023-12-20T05:31:33;100571.78;;;5.09;100.00
24558;BME280;12726;49.148;8.582;2023-12-20T05:34:18;100576.44;;;5.16;100.00
24558;BME280;12726;49.148;8.582;2023-12-20T05:37:04;100571.25;;;5.14;100.00
24558;BME280;12726;49.148;8.582;2023-12-20T05:39:49;100578.09;;;5.17;100.00
24558;BME280;12726;49.148;8.582;2023-12-20T05:42:36;100585.44;;;5.15;100.00
24558;BME280;12726;49.148;8.582;2023-12-20T05:45:22;100593.09;;;5.18;100.00
24558;BME280;12726;49.148;8.582;2023-12-20T05:48:07;100598.59;;;5.16;100.00
24558;BME280;12726;49.148;8.582;2023-12-20T05:50:52;100597.06;;;5.22;100.00
24558;BME280;12726;49.148;8.582;2023-12-20T05:53:37;100599.72;;;5.30;100.00
24558;BME280;12726;49.148;8.582;2023-12-20T05:56:23;100600.56;;;5.30;100.00
24558;BME280;12726;49.148;8.582;2023-12-20T05:59:10;100599.41;;;5.25;100.00
24558;BME280;12726;49.148;8.582;2023-12-20T06:01:55;100603.56;;;5.27;100.00
24558;BME280;12726;49.148;8.582;2023-12-20T06:04:42;100595.75;;;5.26;100.00
24558;BME280;12726;49.148;8.582;2023-12-20T06:07:28;100610.72;;;5.27;100.00
24558;BME280;12726;49.148;8.582;2023-12-20T06:10:13;100625.75;;;5.28;100.00
24558;BME280;12726;49.148;8.582;2023-12-20T06:12:58;100617.75;;;5.20;100.00
24558;BME280;12726;49.148;8.582;2023-12-20T06:15:46;100612.94;;;5.23;100.00
24558;BME280;12726;49.148;8.582;2023-12-20T06:18:31;100633.78;;;5.20;100.00
24558;BME280;12726;49.148;8.582;2023-12-20T06:21:17;100616.47;;;5.16;100.00
24558;BME280;12726;49.148;8.582;2023-12-20T06:24:03;100625.13;;;5.18;100.00
24558;BME280;12726;49.148;8.582;2023-12-20T06:26:48;100619.25;;;5.22;100.00
24558;BME280;12726;49.148;8.582;2023-12-20T06:29:33;100627.56;;;5.27;100.00
24558;BME280;12726;49.148;8.582;2023-12-20T06:32:21;100638.78;;;5.23;100.00
24558;BME280;12726;49.148;8.582;2023-12-20T06:35:08;100641.31;;;5.16;100.00
24558;BME280;12726;49.148;8.582;2023-12-20T06:37:53;100636.44;;;5.20;100.00
24558;BME280;12726;49.148;8.582;2023-12-20T06:40:38;100626.47;;;5.13;100.00
24558;BME280;12726;49.148;8.582;2023-12-20T06:43:24;100651.16;;;5.16;100.00
24558;BME280;12726;49.148;8.582;2023-12-20T06:46:09;100653.31;;;5.12;100.00
24558;BME280;12726;49.148;8.582;2023-12-20T06:48:56;100657.19;;;5.01;100.00
24558;BME280;12726;49.148;8.582;2023-12-20T06:51:42;100661.16;;;5.13;100.00
24558;BME280;12726;49.148;8.582;2023-12-20T06:54:27;100660.47;;;5.11;100.00
24558;BME280;12726;49.148;8.582;2023-12-20T06:57:12;100676.03;;;5.08;100.00
24558;BME280;12726;49.148;8.582;2023-12-20T06:59:58;100669.19;;;5.05;100.00
24558;BME280;12726;49.148;8.582;2023-12-20T07:02:43;100666.03;;;5.02;100.00
24558;BME280;12726;49.148;8.582;2023-12-20T07:05:30;100667.34;;;4.98;100.00
24558;BME280;12726;49.148;8.582;2023-12-20T07:08:17;100677.56;;;4.94;100.00
24558;BME280;12726;49.148;8.582;2023-12-20T07:11:03;100677.41;;;4.88;100.00
24558;BME280;12726;49.148;8.582;2023-12-20T07:13:48;100679.56;;;4.84;100.00
24558;BME280;12726;49.148;8.582;2023-12-20T07:16:34;100691.22;;;4.83;100.00
24558;BME280;12726;49.148;8.582;2023-12-20T07:19:19;100692.06;;;4.84;100.00
24558;BME280;12726;49.148;8.582;2023-12-20T07:22:06;100691.22;;;4.83;100.00
24558;BME280;12726;49.148;8.582;2023-12-20T07:24:51;100687.41;;;4.86;100.00
24558;BME280;12726;49.148;8.582;2023-12-20T07:27:38;100694.56;;;4.85;100.00
24558;BME280;12726;49.148;8.582;2023-12-20T07:30:23;100695.56;;;4.84;100.00
24558;BME280;12726;49.148;8.582;2023-12-20T07:33:09;100699.06;;;4.77;100.00
24558;BME280;12726;49.148;8.582;2023-12-20T07:35:56;100699.41;;;4.73;100.00
24558;BME280;12726;49.148;8.582;2023-12-20T07:38:42;100694.09;;;4.73;100.00
24558;BME280;12726;49.148;8.582;2023-12-20T07:41:28;100701.25;;;4.73;100.00
24558;BME280;12726;49.148;8.582;2023-12-20T07:44:13;100702.56;;;4.69;100.00
24558;BME280;12726;49.148;8.582;2023-12-20T07:46:59;100699.91;;;4.77;100.00
24558;BME280;12726;49.148;8.582;2023-12-20T07:49:45;100712.22;;;4.70;100.00
24558;BME280;12726;49.148;8.582;2023-12-20T07:52:30;100711.59;;;4.60;100.00
24558;BME280;12726;49.148;8.582;2023-12-20T07:55:17;100708.09;;;4.59;100.00
24558;BME280;12726;49.148;8.582;2023-12-20T07:58:02;100704.41;;;4.52;100.00
24558;BME280;12726;49.148;8.582;2023-12-20T08:00:49;100716.25;;;4.66;100.00
24558;BME280;12726;49.148;8.582;2023-12-20T08:03:34;100735.59;;;4.68;100.00
24558;BME280;12726;49.148;8.582;2023-12-20T08:06:20;100730.44;;;4.75;100.00
24558;BME280;12726;49.148;8.582;2023-12-20T08:09:06;100731.59;;;4.88;100.00
24558;BME280;12726;49.148;8.582;2023-12-20T08:11:53;100725.56;;;4.86;100.00
24558;BME280;12726;49.148;8.582;2023-12-20T08:14:38;100727.25;;;4.87;100.00
24558;BME280;12726;49.148;8.582;2023-12-20T08:17:24;100720.56;;;4.91;100.00
24558;BME280;12726;49.148;8.582;2023-12-20T08:20:10;100730.56;;;4.97;100.00
24558;BME280;12726;49.148;8.582;2023-12-20T08:22:55;100729.75;;;4.97;100.00
24558;BME280;12726;49.148;8.582;2023-12-20T08:25:40;100741.41;;;4.96;100.00
24558;BME280;12726;49.148;8.582;2023-12-20T08:28:27;100743.72;;;5.07;100.00
24558;BME280;12726;49.148;8.582;2023-12-20T08:31:14;100742.72;;;5.16;100.00
24558;BME280;12726;49.148;8.582;2023-12-20T08:34:00;100740.03;;;5.32;100.00
24558;BME280;12726;49.148;8.582;2023-12-20T08:36:45;100743.19;;;5.36;100.00
24558;BME280;12726;49.148;8.582;2023-12-20T08:39:31;100758.84;;;5.47;100.00
24558;BME280;12726;49.148;8.582;2023-12-20T08:42:17;100749.75;;;5.72;100.00
24558;BME280;12726;49.148;8.582;2023-12-20T08:45:05;100753.31;;;6.35;100.00
24558;BME280;12726;49.148;8.582;2023-12-20T08:47:51;100763.16;;;7.40;100.00
24558;BME280;12726;49.148;8.582;2023-12-20T08:50:36;100757.91;;;8.41;100.00
24558;BME280;12726;49.148;8.582;2023-12-20T08:53:22;100749.38;;;8.95;97.42
24558;BME280;12726;49.148;8.582;2023-12-20T08:56:09;100749.84;;;9.61;93.05
24558;BME280;12726;49.148;8.582;2023-12-20T08:58:54;100756.03;;;10.02;90.50
24558;BME280;12726;49.148;8.582;2023-12-20T09:01:41;100751.06;;;10.40;85.03
24558;BME280;12726;49.148;8.582;2023-12-20T09:04:26;100741.34;;;10.46;84.29
24558;BME280;12726;49.148;8.582;2023-12-20T09:07:21;100742.63;;;10.76;81.95
24558;BME280;12726;49.148;8.582;2023-12-20T09:10:07;100743.66;;;10.82;81.48
24558;BME280;12726;49.148;8.582;2023-12-20T09:12:53;100759.44;;;11.11;78.96
24558;BME280;12726;49.148;8.582;2023-12-20T09:15:40;100759.66;;;11.29;76.17
24558;BME280;12726;49.148;8.582;2023-12-20T09:18:26;100753.41;;;11.55;76.16
24558;BME280;12726;49.148;8.582;2023-12-20T09:21:12;100751.28;;;11.70;74.65
24558;BME280;12726;49.148;8.582;2023-12-20T09:23:57;100756.28;;;11.54;75.50
24558;BME280;12726;49.148;8.582;2023-12-20T09:26:43;100747.63;;;11.25;75.26
24558;BME280;12726;49.148;8.582;2023-12-20T09:29:28;100750.84;;;11.87;74.35
24558;BME280;12726;49.148;8.582;2023-12-20T09:32:14;100760.31;;;12.09;71.15
24558;BME280;12726;49.148;8.582;2023-12-20T09:35:01;100752.88;;;12.49;70.73
24558;BME280;12726;49.148;8.582;2023-12-20T09:37:46;100761.44;;;13.02;67.01
24558;BME280;12726;49.148;8.582;2023-12-20T09:40:32;100757.19;;;13.19;66.23
24558;BME280;12726;49.148;8.582;2023-12-20T09:43:19;100762.59;;;12.88;64.77
24558;BME280;12726;49.148;8.582;2023-12-20T09:46:06;100773.97;;;12.97;66.39
24558;BME280;12726;49.148;8.582;2023-12-20T09:48:52;100751.50;;;13.27;64.96
24558;BME280;12726;49.148;8.582;2023-12-20T09:51:39;100773.97;;;13.71;62.59
24558;BME280;12726;49.148;8.582;2023-12-20T09:54:27;100762.25;;;13.95;62.24
24558;BME280;12726;49.148;8.582;2023-12-20T09:57:14;100775.41;;;14.10;60.15
24558;BME280;12726;49.148;8.582;2023-12-20T09:59:59;100761.09;;;14.69;57.70
24558;BME280;12726;49.148;8.582;2023-12-20T10:02:49;100769.38;;;14.44;59.28
24558;BME280;12726;49.148;8.582;2023-12-20T10:13:05;100760.97;;;13.98;57.47
24558;BME280;12726;49.148;8.582;2023-12-20T10:15:50;100759.69;;;14.19;58.31
24558;BME280;12726;49.148;8.582;2023-12-20T10:18:36;100753.84;;;14.52;55.75
24558;BME280;12726;49.148;8.582;2023-12-20T10:21:22;100745.41;;;13.32;60.51
24558;BME280;12726;49.148;8.582;2023-12-20T10:24:08;100748.72;;;12.02;62.61
24558;BME280;12726;49.148;8.582;2023-12-20T10:27:04;100758.69;;;11.95;64.66
24558;BME280;12726;49.148;8.582;2023-12-20T10:29:51;100752.59;;;10.15;68.87
24558;BME280;12726;49.148;8.582;2023-12-20T10:32:36;100752.84;;;9.17;76.02
24558;BME280;12726;49.148;8.582;2023-12-20T10:35:22;100758.16;;;8.46;80.15
24558;BME280;12726;49.148;8.582;2023-12-20T10:38:07;100744.78;;;7.96;84.72
24558;BME280;12726;49.148;8.582;2023-12-20T10:40:54;100742.75;;;7.54;88.23
24558;BME280;12726;49.148;8.582;2023-12-20T10:43:41;100736.66;;;7.30;89.95
24558;BME280;12726;49.148;8.582;2023-12-20T10:46:29;100732.81;;;6.95;92.32
24558;BME280;12726;49.148;8.582;2023-12-20T10:49:17;100731.03;;;6.88;93.83
24558;BME280;12726;49.148;8.582;2023-12-20T10:52:04;100730.94;;;6.81;94.59
24558;BME280;12726;49.148;8.582;2023-12-20T10:54:50;100727.09;;;6.76;95.39
24558;BME280;12726;49.148;8.582;2023-12-20T10:57:36;100720.47;;;6.72;96.04
24558;BME280;12726;49.148;8.582;2023-12-20T11:00:23;100719.16;;;6.67;96.69
24558;BME280;12726;49.148;8.582;2023-12-20T11:03:10;100727.88;;;6.61;97.97
24558;BME280;12726;49.148;8.582;2023-12-20T11:06:02;100717.56;;;6.58;96.76
24558;BME280;12726;49.148;8.582;2023-12-20T11:08:52;100722.63;;;6.53;97.21
24558;BME280;12726;49.148;8.582;2023-12-20T11:11:50;100719.56;;;6.56;97.94
24558;BME280;12726;49.148;8.582;2023-12-20T11:14:41;100721.53;;;6.62;97.42
24558;BME280;12726;49.148;8.582;2023-12-20T11:17:28;100723.25;;;6.55;96.80
24558;BME280;12726;49.148;8.582;2023-12-20T11:20:15;100728.25;;;6.58;98.14
24558;BME280;12726;49.148;8.582;2023-12-20T11:23:00;100719.75;;;6.55;98.53
24558;BME280;12726;49.148;8.582;2023-12-20T11:25:52;100711.59;;;6.48;98.35
24558;BME280;12726;49.148;8.582;2023-12-20T11:28:38;100707.47;;;6.46;98.13
24558;BME280;12726;49.148;8.582;2023-12-20T11:31:23;100722.00;;;6.43;98.46
24558;BME280;12726;49.148;8.582;2023-12-20T11:34:17;100707.63;;;6.44;98.89
24558;BME280;12726;49.148;8.582;2023-12-20T11:37:03;100702.47;;;6.43;98.86
24558;BME280;12726;49.148;8.582;2023-12-20T11:39:54;100701.44;;;6.44;98.23
24558;BME280;12726;49.148;8.582;2023-12-20T11:42:40;100705.63;;;6.46;99.39
24558;BME280;12726;49.148;8.582;2023-12-20T11:45:25;100692.88;;;6.48;99.89
24558;BME280;12726;49.148;8.582;2023-12-20T11:48:11;100701.97;;;6.62;99.80
24558;BME280;12726;49.148;8.582;2023-12-20T11:50:57;100692.41;;;6.67;99.93
24558;BME280;12726;49.148;8.582;2023-12-20T11:53:44;100698.16;;;6.79;100.00
24558;BME280;12726;49.148;8.582;2023-12-20T11:56:29;100693.41;;;7.19;98.91
24558;BME280;12726;49.148;8.582;2023-12-20T11:59:15;100693.06;;;7.22;97.55
24558;BME280;12726;49.148;8.582;2023-12-20T12:02:00;100690.59;;;6.97;98.47
24558;BME280;12726;49.148;8.582;2023-12-20T12:04:48;100692.97;;;6.78;100.00
24558;BME280;12726;49.148;8.582;2023-12-20T12:07:35;100685.56;;;6.65;100.00
24558;BME280;12726;49.148;8.582;2023-12-20T12:10:21;100692.53;;;6.51;100.00
24558;BME280;12726;49.148;8.582;2023-12-20T12:13:07;100685.53;;;6.50;100.00
24558;BME280;12726;49.148;8.582;2023-12-20T12:15:53;100684.69;;;6.50;100.00
24558;BME280;12726;49.148;8.582;2023-12-20T12:18:39;100661.00;;;6.99;100.00
24558;BME280;12726;49.148;8.582;2023-12-20T12:21:25;100671.78;;;7.79;99.90
24558;BME280;12726;49.148;8.582;2023-12-20T12:24:11;100681.81;;;7.92;95.64
24558;BME280;12726;49.148;8.582;2023-12-20T12:26:58;100686.09;;;7.71;96.43
24558;BME280;12726;49.148;8.582;2023-12-20T12:30:01;100684.38;;;7.34;96.97
24558;BME280;12726;49.148;8.582;2023-12-20T12:32:47;100686.22;;;7.19;98.07
24558;BME280;12726;49.148;8.582;2023-12-20T12:35:33;100684.66;;;7.10;99.82
24558;BME280;12726;49.148;8.582;2023-12-20T12:38:20;100672.34;;;6.86;99.92
24558;BME280;12726;49.148;8.582;2023-12-20T12:41:05;100680.66;;;6.68;100.00
24558;BME280;12726;49.148;8.582;2023-12-20T12:43:52;100670.75;;;6.54;100.00
24558;BME280;12726;49.148;8.582;2023-12-20T12:46:38;100675.38;;;6.46;100.00
24558;BME280;12726;49.148;8.582;2023-12-20T12:49:23;100672.44;;;6.33;100.00
24558;BME280;12726;49.148;8.582;2023-12-20T12:52:08;100668.63;;;6.27;100.00
24558;BME280;12726;49.148;8.582;2023-12-20T12:54:53;100673.97;;;6.27;100.00
24558;BME280;12726;49.148;8.582;2023-12-20T12:57:39;100671.84;;;6.22;100.00
24558;BME280;12726;49.148;8.582;2023-12-20T13:00:26;100685.41;;;6.21;100.00
24558;BME280;12726;49.148;8.582;2023-12-20T13:03:11;100673.75;;;6.14;100.00
24558;BME280;12726;49.148;8.582;2023-12-20T13:05:57;100670.06;;;6.15;100.00
24558;BME280;12726;49.148;8.582;2023-12-20T13:08:42;100683.13;;;6.10;100.00
24558;BME280;12726;49.148;8.582;2023-12-20T13:11:28;100678.97;;;6.07;100.00
24558;BME280;12726;49.148;8.582;2023-12-20T13:14:15;100674.56;;;6.14;100.00
24558;BME280;12726;49.148;8.582;2023-12-20T13:17:02;100659.72;;;6.12;100.00
24558;BME280;12726;49.148;8.582;2023-12-20T13:19:47;100658.53;;;6.14;100.00
24558;BME280;12726;49.148;8.582;2023-12-20T13:22:34;100661.75;;;6.10;100.00
24558;BME280;12726;49.148;8.582;2023-12-20T13:25:20;100669.22;;;6.14;100.00
24558;BME280;12726;49.148;8.582;2023-12-20T13:28:05;100664.88;;;6.13;100.00
24558;BME280;12726;49.148;8.582;2023-12-20T13:30:51;100659.41;;;6.07;100.00
24558;BME280;12726;49.148;8.582;2023-12-20T13:33:38;100658.13;;;6.03;100.00
24558;BME280;12726;49.148;8.582;2023-12-20T13:36:24;100634.03;;;6.11;100.00
24558;BME280;12726;49.148;8.582;2023-12-20T13:39:09;100647.69;;;6.16;100.00
24558;BME280;12726;49.148;8.582;2023-12-20T13:41:55;100645.19;;;6.14;100.00
24558;BME280;12726;49.148;8.582;2023-12-20T13:44:40;100630.03;;;6.07;100.00
24558;BME280;12726;49.148;8.582;2023-12-20T13:47:26;100612.50;;;6.04;100.00
24558;BME280;12726;49.148;8.582;2023-12-20T13:50:13;100624.69;;;6.07;100.00
24558;BME280;12726;49.148;8.582;2023-12-20T13:52:58;100632.69;;;6.07;100.00
24558;BME280;12726;49.148;8.582;2023-12-20T13:55:44;100617.31;;;6.09;100.00
24558;BME280;12726;49.148;8.582;2023-12-20T13:58:30;100626.34;;;6.08;100.00
24558;BME280;12726;49.148;8.582;2023-12-20T14:01:15;100614.53;;;6.02;100.00
24558;BME280;12726;49.148;8.582;2023-12-20T14:04:01;100619.00;;;6.10;100.00
24558;BME280;12726;49.148;8.582;2023-12-20T14:06:48;100623.69;;;6.08;100.00
24558;BME280;12726;49.148;8.582;2023-12-20T14:09:33;100631.09;;;5.98;100.00
24558;BME280;12726;49.148;8.582;2023-12-20T14:12:19;100636.66;;;5.88;100.00
24558;BME280;12726;49.148;8.582;2023-12-20T14:15:05;100633.00;;;5.81;100.00
24558;BME280;12726;49.148;8.582;2023-12-20T14:17:53;100630.22;;;5.74;100.00
24558;BME280;12726;49.148;8.582;2023-12-20T14:20:40;100628.66;;;5.80;100.00
24558;BME280;12726;49.148;8.582;2023-12-20T14:23:28;100611.81;;;5.79;100.00
24558;BME280;12726;49.148;8.582;2023-12-20T14:26:13;100617.81;;;5.81;100.00
24558;BME280;12726;49.148;8.582;2023-12-20T14:28:58;100625.03;;;5.73;100.00
24558;BME280;12726;49.148;8.582;2023-12-20T14:31:43;100625.88;;;5.73;100.00
24558;BME280;12726;49.148;8.582;2023-12-20T14:34:29;100626.88;;;5.72;100.00
24558;BME280;12726;49.148;8.582;2023-12-20T14:37:14;100630.25;;;5.66;100.00